sensor_id;sensor_type;location;lat;lon;timestamp;pressure;altitude;pressure_sealevel;temperature;humidity
30081;BME280;16902;50.816;12.828;2023-05-12T00:04:07;97737.06;;;9.10;100.00
30081;BME280;16902;50.816;12.828;2023-05-12T00:09:09;97733.59;;;9.17;100.00
30081;BME280;16902;50.816;12.828;2023-05-12T00:14:11;97741.47;;;9.09;100.00
30081;BME280;16902;50.816;12.828;2023-05-12T00:19:12;97742.34;;;8.93;100.00
30081;BME280;16902;50.816;12.828;2023-05-12T00:24:14;97744.41;;;8.98;100.00
30081;BME280;16902;50.816;12.828;2023-05-12T00:29:17;97741.69;;;8.99;100.00
30081;BME280;16902;50.816;12.828;2023-05-12T00:34:18;97739.09;;;8.99;100.00
30081;BME280;16902;50.816;12.828;2023-05-12T00:39:20;97729.94;;;9.04;100.00
30081;BME280;16902;50.816;12.828;2023-05-12T00:44:22;97737.41;;;9.07;100.00
30081;BME280;16902;50.816;12.828;2023-05-12T00:49:24;97743.91;;;9.02;100.00
30081;BME280;16902;50.816;12.828;2023-05-12T00:54:28;97741.00;;;9.06;100.00
30081;BME280;16902;50.816;12.828;2023-05-12T00:59:30;97746.03;;;8.99;100.00
30081;BME280;16902;50.816;12.828;2023-05-12T01:04:33;97731.88;;;9.10;100.00
30081;BME280;16902;50.816;12.828;2023-05-12T01:09:36;97733.47;;;9.19;100.00
30081;BME280;16902;50.816;12.828;2023-05-12T01:14:39;97731.25;;;9.31;100.00
30081;BME280;16902;50.816;12.828;2023-05-12T01:19:51;97737.09;;;9.33;100.00
30081;BME280;16902;50.816;12.828;2023-05-12T01:24:56;97735.19;;;9.26;100.00
30081;BME280;16902;50.816;12.828;2023-05-12T01:30:02;97728.47;;;9.32;100.00
30081;BME280;16902;50.816;12.828;2023-05-12T01:35:08;97733.88;;;9.31;100.00
30081;BME280;16902;50.816;12.828;2023-05-12T01:40:12;97732.00;;;9.16;100.00
30081;BME280;16902;50.816;12.828;2023-05-12T01:45:14;97725.25;;;8.99;100.00
30081;BME280;16902;50.816;12.828;2023-05-12T01:50:16;97729.56;;;8.84;100.00
30081;BME280;16902;50.816;12.828;2023-05-12T01:55:18;97730.63;;;8.66;100.00
30081;BME280;16902;50.816;12.828;2023-05-12T02:00:25;97729.91;;;8.41;100.00
30081;BME280;16902;50.816;12.828;2023-05-12T02:05:30;97730.72;;;8.17;100.00
30081;BME280;16902;50.816;12.828;2023-05-12T02:10:33;97731.88;;;7.90;100.00
30081;BME280;16902;50.816;12.828;2023-05-12T02:15:34;97726.41;;;7.69;100.00
30081;BME280;16902;50.816;12.828;2023-05-12T02:20:36;97734.16;;;7.61;100.00
30081;BME280;16902;50.816;12.828;2023-05-12T02:25:38;97727.69;;;7.57;100.00
30081;BME280;16902;50.816;12.828;2023-05-12T02:30:47;97725.41;;;7.54;100.00
30081;BME280;16902;50.816;12.828;2023-05-12T02:35:50;97726.38;;;7.53;100.00
30081;BME280;16902;50.816;12.828;2023-05-12T02:40:51;97718.94;;;7.41;100.00
30081;BME280;16902;50.816;12.828;2023-05-12T02:45:54;97730.56;;;7.29;100.00
30081;BME280;16902;50.816;12.828;2023-05-12T02:50:56;97732.47;;;7.19;100.00
30081;BME280;16902;50.816;12.828;2023-05-12T02:55:58;97734.09;;;7.12;100.00
30081;BME280;16902;50.816;12.828;2023-05-12T03:00:59;97722.16;;;7.27;100.00
30081;BME280;16902;50.816;12.828;2023-05-12T03:06:12;97731.06;;;7.41;100.00
30081;BME280;16902;50.816;12.828;2023-05-12T03:11:14;97731.75;;;7.59;100.00
30081;BME280;16902;50.816;12.828;2023-05-12T03:16:15;97732.56;;;7.60;100.00
30081;BME280;16902;50.816;12.828;2023-05-12T03:21:21;97734.47;;;7.66;100.00
30081;BME280;16902;50.816;12.828;2023-05-12T03:26:22;97734.16;;;7.77;100.00
30081;BME280;16902;50.816;12.828;2023-05-12T03:31:24;97731.56;;;7.85;100.00
30081;BME280;16902;50.816;12.828;2023-05-12T03:36:26;97725.09;;;7.89;100.00
30081;BME280;16902;50.816;12.828;2023-05-12T03:41:30;97727.66;;;7.97;100.00
30081;BME280;16902;50.816;12.828;2023-05-12T03:46:32;97734.13;;;8.02;100.00
30081;BME280;16902;50.816;12.828;2023-05-12T03:51:33;97730.06;;;8.07;100.00
30081;BME280;16902;50.816;12.828;2023-05-12T03:56:35;97724.88;;;8.07;100.00
30081;BME280;16902;50.816;12.828;2023-05-12T04:01:37;97733.00;;;8.12;100.00
30081;BME280;16902;50.816;12.828;2023-05-12T04:06:39;97727.31;;;8.17;100.00
30081;BME280;16902;50.816;12.828;2023-05-12T04:11:41;97731.19;;;8.21;100.00
30081;BME280;16902;50.816;12.828;2023-05-12T04:16:43;97742.69;;;8.27;100.00
30081;BME280;16902;50.816;12.828;2023-05-12T04:21:44;97743.97;;;8.31;100.00
30081;BME280;16902;50.816;12.828;2023-05-12T04:26:46;97743.03;;;8.32;100.00
30081;BME280;16902;50.816;12.828;2023-05-12T04:31:48;97754.00;;;8.50;100.00
30081;BME280;16902;50.816;12.828;2023-05-12T04:36:50;97749.09;;;8.63;100.00
30081;BME280;16902;50.816;12.828;2023-05-12T04:41:52;97758.78;;;8.78;100.00
30081;BME280;16902;50.816;12.828;2023-05-12T04:46:55;97755.56;;;9.15;100.00
30081;BME280;16902;50.816;12.828;2023-05-12T04:51:57;97757.59;;;9.50;100.00
30081;BME280;16902;50.816;12.828;2023-05-12T04:56:59;97761.41;;;9.86;100.00
30081;BME280;16902;50.816;12.828;2023-05-12T05:02:01;97762.31;;;10.16;100.00
30081;BME280;16902;50.816;12.828;2023-05-12T05:07:03;97760.84;;;10.36;100.00
30081;BME280;16902;50.816;12.828;2023-05-12T05:12:06;97763.63;;;10.64;100.00
30081;BME280;16902;50.816;12.828;2023-05-12T05:17:08;97769.81;;;10.78;100.00
30081;BME280;16902;50.816;12.828;2023-05-12T05:22:12;97778.84;;;10.97;100.00
30081;BME280;16902;50.816;12.828;2023-05-12T05:27:14;97787.38;;;11.20;100.00
30081;BME280;16902;50.816;12.828;2023-05-12T05:32:16;97786.22;;;11.44;100.00
30081;BME280;16902;50.816;12.828;2023-05-12T05:37:18;97786.69;;;11.69;100.00
30081;BME280;16902;50.816;12.828;2023-05-12T05:42:20;97787.91;;;11.88;100.00
30081;BME280;16902;50.816;12.828;2023-05-12T05:47:23;97785.00;;;12.26;100.00
30081;BME280;16902;50.816;12.828;2023-05-12T05:52:25;97788.16;;;12.43;100.00
30081;BME280;16902;50.816;12.828;2023-05-12T05:57:26;97793.53;;;12.69;100.00
30081;BME280;16902;50.816;12.828;2023-05-12T06:02:30;97807.25;;;12.78;100.00
30081;BME280;16902;50.816;12.828;2023-05-12T06:07:34;97803.09;;;12.90;100.00
30081;BME280;16902;50.816;12.828;2023-05-12T06:12:37;97806.69;;;13.24;100.00
30081;BME280;16902;50.816;12.828;2023-05-12T06:17:40;97798.34;;;13.55;100.00
30081;BME280;16902;50.816;12.828;2023-05-12T06:22:42;97804.44;;;13.75;100.00
30081;BME280;16902;50.816;12.828;2023-05-12T06:27:44;97807.50;;;14.32;100.00
30081;BME280;16902;50.816;12.828;2023-05-12T06:32:46;97816.56;;;14.23;100.00
30081;BME280;16902;50.816;12.828;2023-05-12T06:37:48;97810.31;;;14.63;100.00
30081;BME280;16902;50.816;12.828;2023-05-12T06:42:51;97812.75;;;14.58;100.00
30081;BME280;16902;50.816;12.828;2023-05-12T06:47:54;97817.56;;;14.55;100.00
30081;BME280;16902;50.816;12.828;2023-05-12T06:52:55;97822.00;;;14.08;100.00
30081;BME280;16902;50.816;12.828;2023-05-12T06:57:57;97822.19;;;13.93;100.00
30081;BME280;16902;50.816;12.828;2023-05-12T07:02:59;97821.00;;;14.09;100.00
30081;BME280;16902;50.816;12.828;2023-05-12T07:08:00;97825.41;;;14.08;100.00
30081;BME280;16902;50.816;12.828;2023-05-12T07:13:03;97815.97;;;14.27;100.00
30081;BME280;16902;50.816;12.828;2023-05-12T07:18:04;97811.50;;;14.74;100.00
30081;BME280;16902;50.816;12.828;2023-05-12T07:23:06;97810.03;;;15.05;100.00
30081;BME280;16902;50.816;12.828;2023-05-12T07:28:09;97811.06;;;15.49;100.00
30081;BME280;16902;50.816;12.828;2023-05-12T07:33:11;97819.97;;;15.41;100.00
30081;BME280;16902;50.816;12.828;2023-05-12T07:38:13;97823.25;;;15.30;100.00
30081;BME280;16902;50.816;12.828;2023-05-12T07:43:15;97817.78;;;15.38;100.00
30081;BME280;16902;50.816;12.828;2023-05-12T07:48:18;97819.88;;;15.99;100.00
30081;BME280;16902;50.816;12.828;2023-05-12T07:53:19;97819.69;;;16.26;100.00
30081;BME280;16902;50.816;12.828;2023-05-12T07:58:21;97815.22;;;16.51;100.00
30081;BME280;16902;50.816;12.828;2023-05-12T08:03:23;97817.53;;;17.21;100.00
30081;BME280;16902;50.816;12.828;2023-05-12T08:08:24;97822.56;;;16.42;100.00
30081;BME280;16902;50.816;12.828;2023-05-12T08:13:26;97813.41;;;16.95;100.00
30081;BME280;16902;50.816;12.828;2023-05-12T08:18:28;97827.19;;;17.45;100.00
30081;BME280;16902;50.816;12.828;2023-05-12T08:23:30;97824.19;;;18.02;100.00
30081;BME280;16902;50.816;12.828;2023-05-12T08:28:32;97829.59;;;18.07;100.00
30081;BME280;16902;50.816;12.828;2023-05-12T08:33:35;97833.44;;;18.23;100.00
30081;BME280;16902;50.816;12.828;2023-05-12T08:38:36;97838.81;;;17.56;100.00
30081;BME280;16902;50.816;12.828;2023-05-12T08:43:49;97833.81;;;17.66;100.00
30081;BME280;16902;50.816;12.828;2023-05-12T08:48:52;97828.28;;;17.86;100.00
30081;BME280;16902;50.816;12.828;2023-05-12T08:53:55;97824.25;;;17.84;100.00
30081;BME280;16902;50.816;12.828;2023-05-12T08:58:57;97828.00;;;17.09;100.00
30081;BME280;16902;50.816;12.828;2023-05-12T09:04:04;97827.50;;;17.67;100.00
30081;BME280;16902;50.816;12.828;2023-05-12T09:09:06;97824.69;;;18.11;100.00
30081;BME280;16902;50.816;12.828;2023-05-12T09:14:14;97820.38;;;18.40;100.00
30081;BME280;16902;50.816;12.828;2023-05-12T09:19:19;97819.59;;;17.86;100.00
30081;BME280;16902;50.816;12.828;2023-05-12T09:24:35;97819.69;;;17.61;100.00
30081;BME280;16902;50.816;12.828;2023-05-12T09:29:47;97813.97;;;17.82;100.00
30081;BME280;16902;50.816;12.828;2023-05-12T09:35:10;97811.53;;;19.05;100.00
30081;BME280;16902;50.816;12.828;2023-05-12T09:40:12;97823.38;;;19.42;100.00
30081;BME280;16902;50.816;12.828;2023-05-12T09:45:14;97816.53;;;20.66;100.00
30081;BME280;16902;50.816;12.828;2023-05-12T09:50:15;97819.84;;;19.37;100.00
30081;BME280;16902;50.816;12.828;2023-05-12T09:55:19;97824.69;;;20.14;100.00
30081;BME280;16902;50.816;12.828;2023-05-12T10:00:21;97819.25;;;21.32;89.40
30081;BME280;16902;50.816;12.828;2023-05-12T10:05:53;97826.53;;;20.30;84.51
30081;BME280;16902;50.816;12.828;2023-05-12T10:10:59;97821.75;;;19.82;93.16
30081;BME280;16902;50.816;12.828;2023-05-12T10:16:02;97827.72;;;19.48;100.00
30081;BME280;16902;50.816;12.828;2023-05-12T10:21:05;97836.66;;;19.59;100.00
30081;BME280;16902;50.816;12.828;2023-05-12T10:26:09;97827.72;;;19.89;92.18
30081;BME280;16902;50.816;12.828;2023-05-12T10:31:12;97825.44;;;19.81;85.06
30081;BME280;16902;50.816;12.828;2023-05-12T10:36:18;97820.66;;;20.11;89.68
30081;BME280;16902;50.816;12.828;2023-05-12T10:41:33;97829.81;;;20.03;99.26
30081;BME280;16902;50.816;12.828;2023-05-12T10:46:35;97828.22;;;20.36;85.73
30081;BME280;16902;50.816;12.828;2023-05-12T10:56:48;97827.41;;;19.33;91.96
30081;BME280;16902;50.816;12.828;2023-05-12T11:07:08;97829.38;;;19.95;100.00
30081;BME280;16902;50.816;12.828;2023-05-12T11:12:11;97835.47;;;23.28;92.78
30081;BME280;16902;50.816;12.828;2023-05-12T11:17:14;97838.19;;;25.86;54.07
30081;BME280;16902;50.816;12.828;2023-05-12T11:22:18;97830.16;;;23.28;57.29
30081;BME280;16902;50.816;12.828;2023-05-12T11:27:21;97825.41;;;22.13;63.15
30081;BME280;16902;50.816;12.828;2023-05-12T11:32:24;97823.16;;;23.06;68.74
30081;BME280;16902;50.816;12.828;2023-05-12T11:37:25;97836.59;;;23.47;52.01
30081;BME280;16902;50.816;12.828;2023-05-12T11:42:27;97852.06;;;22.01;55.86
30081;BME280;16902;50.816;12.828;2023-05-12T11:47:29;97850.03;;;21.81;57.67
30081;BME280;16902;50.816;12.828;2023-05-12T11:52:30;97849.75;;;20.95;59.13
30081;BME280;16902;50.816;12.828;2023-05-12T11:57:33;97848.78;;;21.01;62.43
30081;BME280;16902;50.816;12.828;2023-05-12T12:02:38;97846.09;;;23.33;55.75
30081;BME280;16902;50.816;12.828;2023-05-12T12:07:43;97859.47;;;22.58;54.45
30081;BME280;16902;50.816;12.828;2023-05-12T12:12:45;97864.06;;;23.16;59.63
30081;BME280;16902;50.816;12.828;2023-05-12T12:17:47;97865.72;;;28.37;42.76
30081;BME280;16902;50.816;12.828;2023-05-12T12:22:49;97855.25;;;30.28;36.81
30081;BME280;16902;50.816;12.828;2023-05-12T12:27:50;97867.66;;;24.76;48.07
30081;BME280;16902;50.816;12.828;2023-05-12T12:32:53;97861.09;;;22.97;57.72
30081;BME280;16902;50.816;12.828;2023-05-12T12:37:55;97861.09;;;23.02;62.97
30081;BME280;16902;50.816;12.828;2023-05-12T12:42:56;97866.56;;;22.16;62.00
30081;BME280;16902;50.816;12.828;2023-05-12T12:47:58;97863.59;;;21.90;66.04
30081;BME280;16902;50.816;12.828;2023-05-12T12:53:00;97867.09;;;20.69;63.93
30081;BME280;16902;50.816;12.828;2023-05-12T12:58:02;97868.44;;;20.21;64.54
30081;BME280;16902;50.816;12.828;2023-05-12T13:03:04;97873.44;;;20.68;66.85
30081;BME280;16902;50.816;12.828;2023-05-12T13:08:06;97864.69;;;20.85;55.94
30081;BME280;16902;50.816;12.828;2023-05-12T13:13:07;97879.06;;;22.20;59.93
30081;BME280;16902;50.816;12.828;2023-05-12T13:18:12;97860.53;;;20.89;58.82
30081;BME280;16902;50.816;12.828;2023-05-12T13:23:14;97863.44;;;21.09;69.31
30081;BME280;16902;50.816;12.828;2023-05-12T13:28:15;97859.66;;;21.44;53.13
30081;BME280;16902;50.816;12.828;2023-05-12T13:33:17;97861.03;;;22.22;60.04
30081;BME280;16902;50.816;12.828;2023-05-12T13:38:19;97871.31;;;21.92;52.98
30081;BME280;16902;50.816;12.828;2023-05-12T13:43:20;97859.03;;;23.72;54.23
30081;BME280;16902;50.816;12.828;2023-05-12T13:48:22;97863.53;;;23.66;50.31
30081;BME280;16902;50.816;12.828;2023-05-12T13:53:24;97865.97;;;22.14;55.88
30081;BME280;16902;50.816;12.828;2023-05-12T13:58:26;97852.06;;;22.28;51.81
30081;BME280;16902;50.816;12.828;2023-05-12T14:03:27;97850.34;;;21.19;57.99
30081;BME280;16902;50.816;12.828;2023-05-12T14:08:29;97848.03;;;20.84;58.36
30081;BME280;16902;50.816;12.828;2023-05-12T14:13:31;97852.44;;;20.62;63.08
30081;BME280;16902;50.816;12.828;2023-05-12T14:18:32;97858.47;;;20.57;67.30
30081;BME280;16902;50.816;12.828;2023-05-12T14:23:34;97850.47;;;20.40;70.67
30081;BME280;16902;50.816;12.828;2023-05-12T14:28:36;97855.50;;;21.09;68.21
30081;BME280;16902;50.816;12.828;2023-05-12T14:33:39;97860.03;;;25.94;52.79
30081;BME280;16902;50.816;12.828;2023-05-12T14:38:41;97870.59;;;32.65;36.62
30081;BME280;16902;50.816;12.828;2023-05-12T14:43:43;97877.78;;;37.10;28.57
30081;BME280;16902;50.816;12.828;2023-05-12T14:48:46;97872.00;;;39.51;26.86
30081;BME280;16902;50.816;12.828;2023-05-12T14:53:49;97866.88;;;29.37;32.53
30081;BME280;16902;50.816;12.828;2023-05-12T14:58:51;97864.78;;;29.34;32.83
30081;BME280;16902;50.816;12.828;2023-05-12T15:03:52;97861.22;;;30.03;33.02
30081;BME280;16902;50.816;12.828;2023-05-12T15:08:54;97852.13;;;32.03;29.96
30081;BME280;16902;50.816;12.828;2023-05-12T15:13:56;97855.91;;;31.84;30.89
30081;BME280;16902;50.816;12.828;2023-05-12T15:18:58;97856.22;;;32.17;31.70
30081;BME280;16902;50.816;12.828;2023-05-12T15:23:59;97861.69;;;31.43;32.09
30081;BME280;16902;50.816;12.828;2023-05-12T15:29:01;97864.13;;;27.98;35.94
30081;BME280;16902;50.816;12.828;2023-05-12T15:34:03;97858.94;;;22.24;58.18
30081;BME280;16902;50.816;12.828;2023-05-12T15:39:04;97863.75;;;19.03;93.84
30081;BME280;16902;50.816;12.828;2023-05-12T15:44:06;97878.31;;;17.75;100.00
30081;BME280;16902;50.816;12.828;2023-05-12T15:49:08;97878.16;;;17.14;100.00
30081;BME280;16902;50.816;12.828;2023-05-12T15:54:10;97880.84;;;16.33;100.00
30081;BME280;16902;50.816;12.828;2023-05-12T15:59:12;97877.78;;;15.73;100.00
30081;BME280;16902;50.816;12.828;2023-05-12T16:04:14;97868.75;;;15.55;100.00
30081;BME280;16902;50.816;12.828;2023-05-12T16:09:16;97865.06;;;15.70;100.00
30081;BME280;16902;50.816;12.828;2023-05-12T16:14:17;97853.66;;;15.89;100.00
30081;BME280;16902;50.816;12.828;2023-05-12T16:19:19;97864.66;;;16.11;100.00
30081;BME280;16902;50.816;12.828;2023-05-12T16:24:21;97877.50;;;16.19;100.00
30081;BME280;16902;50.816;12.828;2023-05-12T16:29:24;97882.81;;;16.12;100.00
30081;BME280;16902;50.816;12.828;2023-05-12T16:34:25;97889.50;;;16.08;100.00
30081;BME280;16902;50.816;12.828;2023-05-12T16:39:27;97881.03;;;16.06;100.00
30081;BME280;16902;50.816;12.828;2023-05-12T16:44:29;97888.34;;;15.98;100.00
30081;BME280;16902;50.816;12.828;2023-05-12T16:49:31;97886.47;;;15.73;100.00
30081;BME280;16902;50.816;12.828;2023-05-12T16:54:33;97894.97;;;15.55;100.00
30081;BME280;16902;50.816;12.828;2023-05-12T16:59:34;97902.13;;;15.35;100.00
30081;BME280;16902;50.816;12.828;2023-05-12T17:04:36;97893.84;;;15.31;100.00
30081;BME280;16902;50.816;12.828;2023-05-12T17:09:38;97893.59;;;15.46;100.00
30081;BME280;16902;50.816;12.828;2023-05-12T17:14:40;97893.38;;;15.54;100.00
30081;BME280;16902;50.816;12.828;2023-05-12T17:19:42;97894.75;;;15.70;100.00
30081;BME280;16902;50.816;12.828;2023-05-12T17:24:45;97897.72;;;15.87;100.00
30081;BME280;16902;50.816;12.828;2023-05-12T17:29:47;97902.69;;;16.02;100.00
30081;BME280;16902;50.816;12.828;2023-05-12T17:34:49;97900.63;;;16.10;100.00
30081;BME280;16902;50.816;12.828;2023-05-12T17:39:51;97899.13;;;16.21;100.00
30081;BME280;16902;50.816;12.828;2023-05-12T17:44:53;97897.09;;;15.85;100.00
30081;BME280;16902;50.816;12.828;2023-05-12T17:49:54;97896.81;;;15.55;100.00
30081;BME280;16902;50.816;12.828;2023-05-12T17:54:57;97901.13;;;15.29;100.00
30081;BME280;16902;50.816;12.828;2023-05-12T17:59:59;97911.88;;;15.01;100.00
30081;BME280;16902;50.816;12.828;2023-05-12T18:05:02;97923.59;;;14.72;100.00
30081;BME280;16902;50.816;12.828;2023-05-12T18:10:08;97959.84;;;14.49;100.00
30081;BME280;16902;50.816;12.828;2023-05-12T18:15:10;97965.28;;;14.47;100.00
30081;BME280;16902;50.816;12.828;2023-05-12T18:20:12;97963.47;;;14.41;100.00
30081;BME280;16902;50.816;12.828;2023-05-12T18:25:14;97964.84;;;14.37;100.00
30081;BME280;16902;50.816;12.828;2023-05-12T18:30:15;97964.94;;;13.96;100.00
30081;BME280;16902;50.816;12.828;2023-05-12T18:35:17;97947.59;;;13.19;100.00
30081;BME280;16902;50.816;12.828;2023-05-12T18:40:20;97952.25;;;12.46;100.00
30081;BME280;16902;50.816;12.828;2023-05-12T18:45:22;97938.47;;;12.30;100.00
30081;BME280;16902;50.816;12.828;2023-05-12T18:50:24;97914.66;;;12.19;100.00
30081;BME280;16902;50.816;12.828;2023-05-12T18:55:26;97901.06;;;12.23;100.00
30081;BME280;16902;50.816;12.828;2023-05-12T19:00:27;97899.50;;;12.29;100.00
30081;BME280;16902;50.816;12.828;2023-05-12T19:05:32;97912.53;;;12.07;100.00
30081;BME280;16902;50.816;12.828;2023-05-12T19:10:34;97940.66;;;12.12;100.00
30081;BME280;16902;50.816;12.828;2023-05-12T19:15:39;97961.84;;;12.02;100.00
30081;BME280;16902;50.816;12.828;2023-05-12T19:20:41;97955.06;;;12.08;100.00
30081;BME280;16902;50.816;12.828;2023-05-12T19:25:43;97953.09;;;12.10;100.00
30081;BME280;16902;50.816;12.828;2023-05-12T19:30:45;97963.19;;;11.98;100.00
30081;BME280;16902;50.816;12.828;2023-05-12T19:35:46;97967.91;;;11.88;100.00
30081;BME280;16902;50.816;12.828;2023-05-12T19:40:48;97965.28;;;11.88;100.00
30081;BME280;16902;50.816;12.828;2023-05-12T19:45:50;97979.06;;;11.97;100.00
30081;BME280;16902;50.816;12.828;2023-05-12T19:50:52;97984.47;;;11.95;100.00
30081;BME280;16902;50.816;12.828;2023-05-12T19:55:54;97986.78;;;12.05;100.00
30081;BME280;16902;50.816;12.828;2023-05-12T20:00:57;97984.59;;;12.08;100.00
30081;BME280;16902;50.816;12.828;2023-05-12T20:05:59;97983.72;;;12.01;100.00
30081;BME280;16902;50.816;12.828;2023-05-12T20:11:00;97988.41;;;11.91;100.00
30081;BME280;16902;50.816;12.828;2023-05-12T20:16:02;97992.72;;;11.84;100.00
30081;BME280;16902;50.816;12.828;2023-05-12T20:21:04;97980.69;;;11.83;100.00
30081;BME280;16902;50.816;12.828;2023-05-12T20:26:06;97984.19;;;11.90;100.00
30081;BME280;16902;50.816;12.828;2023-05-12T20:31:07;97994.00;;;11.88;100.00
30081;BME280;16902;50.816;12.828;2023-05-12T20:36:10;98004.41;;;11.73;100.00
30081;BME280;16902;50.816;12.828;2023-05-12T20:41:12;98006.41;;;11.56;100.00
30081;BME280;16902;50.816;12.828;2023-05-12T20:46:14;98005.03;;;11.46;100.00
30081;BME280;16902;50.816;12.828;2023-05-12T20:51:16;98000.66;;;11.46;100.00
30081;BME280;16902;50.816;12.828;2023-05-12T20:56:18;98003.94;;;11.40;100.00
30081;BME280;16902;50.816;12.828;2023-05-12T21:01:19;98017.72;;;11.34;100.00
30081;BME280;16902;50.816;12.828;2023-05-12T21:06:21;98012.28;;;11.21;100.00
30081;BME280;16902;50.816;12.828;2023-05-12T21:11:23;98010.94;;;11.25;100.00
30081;BME280;16902;50.816;12.828;2023-05-12T21:16:25;98013.81;;;11.15;100.00
30081;BME280;16902;50.816;12.828;2023-05-12T21:21:27;98019.03;;;10.92;100.00
30081;BME280;16902;50.816;12.828;2023-05-12T21:26:29;98015.06;;;10.81;100.00
30081;BME280;16902;50.816;12.828;2023-05-12T21:31:30;98018.41;;;10.67;100.00
30081;BME280;16902;50.816;12.828;2023-05-12T21:36:32;98012.13;;;10.62;100.00
30081;BME280;16902;50.816;12.828;2023-05-12T21:41:34;98018.53;;;10.51;100.00
30081;BME280;16902;50.816;12.828;2023-05-12T21:46:36;98022.91;;;10.19;100.00
30081;BME280;16902;50.816;12.828;2023-05-12T21:51:38;98028.72;;;9.98;100.00
30081;BME280;16902;50.816;12.828;2023-05-12T21:56:39;98029.72;;;9.89;100.00
30081;BME280;16902;50.816;12.828;2023-05-12T22:01:41;98023.88;;;9.87;100.00
30081;BME280;16902;50.816;12.828;2023-05-12T22:06:43;98024.78;;;9.63;100.00
30081;BME280;16902;50.816;12.828;2023-05-12T22:11:45;98027.41;;;9.47;100.00
30081;BME280;16902;50.816;12.828;2023-05-12T22:16:47;98042.41;;;9.29;100.00
30081;BME280;16902;50.816;12.828;2023-05-12T22:21:48;98043.69;;;9.24;100.00
30081;BME280;16902;50.816;12.828;2023-05-12T22:26:50;98042.41;;;9.20;100.00
30081;BME280;16902;50.816;12.828;2023-05-12T22:31:53;98036.72;;;9.25;100.00
30081;BME280;16902;50.816;12.828;2023-05-12T22:36:54;98043.88;;;9.15;100.00
30081;BME280;16902;50.816;12.828;2023-05-12T22:41:56;98050.69;;;8.99;100.00
30081;BME280;16902;50.816;12.828;2023-05-12T22:46:58;98063.16;;;8.88;100.00
30081;BME280;16902;50.816;12.828;2023-05-12T22:51:59;98079.22;;;8.67;100.00
30081;BME280;16902;50.816;12.828;2023-05-12T22:57:01;98079.50;;;8.56;100.00
30081;BME280;16902;50.816;12.828;2023-05-12T23:02:03;98077.69;;;8.48;100.00
30081;BME280;16902;50.816;12.828;2023-05-12T23:07:04;98082.34;;;8.36;100.00
30081;BME280;16902;50.816;12.828;2023-05-12T23:12:09;98082.16;;;8.30;100.00
30081;BME280;16902;50.816;12.828;2023-05-12T23:17:11;98075.19;;;8.30;100.00
30081;BME280;16902;50.816;12.828;2023-05-12T23:22:12;98069.34;;;8.28;100.00
30081;BME280;16902;50.816;12.828;2023-05-12T23:27:14;98071.09;;;8.19;100.00
30081;BME280;16902;50.816;12.828;2023-05-12T23:32:16;98066.19;;;8.08;100.00
30081;BME280;16902;50.816;12.828;2023-05-12T23:37:18;98069.41;;;8.02;100.00
30081;BME280;16902;50.816;12.828;2023-05-12T23:42:22;98066.50;;;8.05;100.00
30081;BME280;16902;50.816;12.828;2023-05-12T23:47:24;98069.09;;;8.05;100.00
30081;BME280;16902;50.816;12.828;2023-05-12T23:52:25;98072.16;;;8.01;100.00
30081;BME280;16902;50.816;12.828;2023-05-12T23:57:27;98069.44;;;8.10;100.00
